createdAt,value
2023-03-27T00:01:13.304Z,99260.63
2023-03-27T00:03:41.034Z,99267.41
2023-03-27T00:06:11.910Z,99263.50
2023-03-27T00:08:39.547Z,99265.34
2023-03-27T00:11:08.205Z,99267.34
2023-03-27T00:13:49.273Z,99260.50
2023-03-27T00:16:20.239Z,99270.84
2023-03-27T00:18:47.940Z,99280.31
2023-03-27T00:21:15.397Z,99282.28
2023-03-27T00:23:42.828Z,99285.41
2023-03-27T00:26:12.200Z,99285.34
2023-03-27T00:28:39.970Z,99284.06
2023-03-27T00:31:14.289Z,99292.84
2023-03-27T00:33:42.671Z,99288.53
2023-03-27T00:36:11.218Z,99294.97
2023-03-27T00:38:43.619Z,99291.94
2023-03-27T00:41:11.006Z,99296.06
2023-03-27T00:43:43.963Z,99292.59
2023-03-27T00:46:33.593Z,99293.69
2023-03-27T00:49:05.242Z,99291.56
2023-03-27T00:51:35.764Z,99292.59
2023-03-27T00:54:04.623Z,99315.22
2023-03-27T00:56:33.854Z,99310.78
2023-03-27T00:59:06.307Z,99298.13
2023-03-27T01:01:34.012Z,99304.22
2023-03-27T01:04:06.312Z,99289.56
2023-03-27T01:06:35.538Z,99292.53
2023-03-27T01:09:04.693Z,99299.13
2023-03-27T01:12:04.458Z,99329.03
2023-03-27T01:14:57.315Z,99322.00
2023-03-27T01:17:46.367Z,99327.19
2023-03-27T01:20:16.828Z,99317.28
2023-03-27T01:23:15.918Z,99301.66
2023-03-27T01:26:36.010Z,99312.34
2023-03-27T01:29:16.995Z,99297.34
2023-03-27T01:32:07.656Z,99295.19
2023-03-27T01:34:45.040Z,99310.44
2023-03-27T01:37:41.313Z,99311.50
2023-03-27T01:40:17.934Z,99331.91
2023-03-27T01:42:59.985Z,99334.19
2023-03-27T01:45:41.033Z,99330.31
2023-03-27T01:48:14.700Z,99336.22
2023-03-27T01:50:48.920Z,99345.47
2023-03-27T01:53:34.278Z,99353.28
2023-03-27T01:56:09.633Z,99352.09
2023-03-27T01:58:46.439Z,99353.09
2023-03-27T02:01:22.384Z,99341.69
2023-03-27T02:03:57.253Z,99339.91
2023-03-27T02:06:33.563Z,99346.91
2023-03-27T02:09:08.648Z,99350.75
2023-03-27T02:11:41.756Z,99341.34
2023-03-27T02:14:13.504Z,99343.88
2023-03-27T02:16:48.827Z,99328.69
2023-03-27T02:19:23.321Z,99345.81
2023-03-27T02:21:50.709Z,99354.69
2023-03-27T02:24:18.955Z,99361.72
2023-03-27T02:26:55.429Z,99365.78
2023-03-27T02:30:01.644Z,99364.94
2023-03-27T02:33:02.253Z,99367.91
2023-03-27T02:35:58.737Z,99372.66
2023-03-27T02:38:49.598Z,99370.06
2023-03-27T02:41:16.927Z,99366.72
2023-03-27T02:44:14.392Z,99371.13
2023-03-27T02:47:07.628Z,99390.69
2023-03-27T02:49:53.991Z,99379.41
2023-03-27T02:52:35.448Z,99365.53
2023-03-27T02:55:12.989Z,99374.03
2023-03-27T02:57:40.428Z,99382.75
2023-03-27T03:00:42.025Z,99384.44
2023-03-27T03:03:42.808Z,99398.44
2023-03-27T03:06:29.913Z,99406.69
2023-03-27T03:09:02.120Z,99394.56
2023-03-27T03:11:30.190Z,99398.63
2023-03-27T03:13:57.823Z,99401.03
2023-03-27T03:16:26.026Z,99413.28
2023-03-27T03:18:53.431Z,99418.44
2023-03-27T03:21:20.933Z,99410.09
2023-03-27T03:23:57.909Z,99405.78
2023-03-27T03:26:27.647Z,99408.94
2023-03-27T03:29:00.613Z,99413.31
2023-03-27T03:31:44.647Z,99410.59
2023-03-27T03:34:16.339Z,99400.47
2023-03-27T03:36:49.750Z,99410.69
2023-03-27T03:39:22.151Z,99415.59
2023-03-27T03:41:51.096Z,99409.81
2023-03-27T03:44:19.174Z,99417.91
2023-03-27T03:46:46.707Z,99424.28
2023-03-27T03:49:20.823Z,99416.91
2023-03-27T03:51:48.312Z,99442.16
2023-03-27T03:54:33.095Z,99444.13
2023-03-27T03:57:00.818Z,99452.84
2023-03-27T03:59:28.704Z,99450.13
2023-03-27T04:02:28.463Z,99454.25
2023-03-27T04:05:01.436Z,99456.38
2023-03-27T04:07:40.400Z,99464.03
2023-03-27T04:10:31.116Z,99458.00
2023-03-27T04:13:01.042Z,99468.19
2023-03-27T04:16:10.865Z,99460.84
2023-03-27T04:18:46.413Z,99460.56
2023-03-27T04:21:19.198Z,99457.75
2023-03-27T04:23:48.400Z,99453.28
2023-03-27T04:26:26.675Z,99460.63
2023-03-27T04:29:13.112Z,99449.66
2023-03-27T04:31:59.892Z,99443.13
2023-03-27T04:34:42.718Z,99457.69
2023-03-27T04:37:30.523Z,99461.06
2023-03-27T04:40:25.572Z,99463.88
2023-03-27T04:42:55.964Z,99450.88
2023-03-27T04:45:25.793Z,99455.78
2023-03-27T04:47:54.679Z,99465.56
2023-03-27T04:50:23.013Z,99477.72
2023-03-27T04:52:51.892Z,99474.94
2023-03-27T04:55:23.048Z,99482.28
2023-03-27T04:57:50.751Z,99477.09
2023-03-27T05:00:20.124Z,99473.13
2023-03-27T05:03:19.781Z,99467.16
2023-03-27T05:06:05.741Z,99481.50
2023-03-27T05:08:33.531Z,99478.03
2023-03-27T05:11:01.242Z,99473.09
2023-03-27T05:13:36.017Z,99479.47
2023-03-27T05:16:04.757Z,99482.16
2023-03-27T05:18:42.136Z,99491.13
2023-03-27T05:21:10.786Z,99501.78
2023-03-27T05:23:39.096Z,99499.88
2023-03-27T05:26:08.087Z,99502.56
2023-03-27T05:28:50.071Z,99517.06
2023-03-27T05:31:21.954Z,99511.22
2023-03-27T05:33:56.583Z,99516.13
2023-03-27T05:36:26.431Z,99520.88
2023-03-27T05:38:54.256Z,99529.22
2023-03-27T05:41:35.386Z,99532.59
2023-03-27T05:44:04.619Z,99528.91
2023-03-27T05:46:36.487Z,99520.88
2023-03-27T05:49:11.533Z,99524.19
2023-03-27T05:51:46.734Z,99527.22
2023-03-27T05:54:22.602Z,99528.97
2023-03-27T05:57:19.509Z,99529.41
2023-03-27T05:59:48.944Z,99537.41
2023-03-27T06:02:22.202Z,99548.19
2023-03-27T06:04:59.306Z,99556.84
2023-03-27T06:07:43.146Z,99556.97
2023-03-27T06:10:14.398Z,99546.72
2023-03-27T06:13:08.784Z,99561.53
2023-03-27T06:15:47.974Z,99567.84
2023-03-27T06:18:27.565Z,99562.03
2023-03-27T06:20:55.351Z,99560.59
2023-03-27T06:23:23.443Z,99581.31
2023-03-27T06:25:53.550Z,99567.75
2023-03-27T06:28:24.241Z,99561.91
2023-03-27T06:30:51.898Z,99566.16
2023-03-27T06:33:29.623Z,99562.59
2023-03-27T06:36:00.895Z,99570.31
2023-03-27T06:38:34.422Z,99572.09
2023-03-27T06:41:02.896Z,99569.69
2023-03-27T06:43:50.522Z,99558.94
2023-03-27T06:46:45.705Z,99576.19
2023-03-27T06:49:19.790Z,99586.06
2023-03-27T06:51:47.369Z,99569.16
2023-03-27T06:54:15.652Z,99567.13
2023-03-27T06:56:50.531Z,99585.25
2023-03-27T06:59:22.576Z,99598.69
2023-03-27T07:01:56.088Z,99602.75
2023-03-27T07:05:03.703Z,99597.47
2023-03-27T07:07:40.317Z,99603.66
2023-03-27T07:10:10.587Z,99606.41
2023-03-27T07:12:38.667Z,99613.72
2023-03-27T07:15:06.914Z,99606.00
2023-03-27T07:17:47.652Z,99609.16
2023-03-27T07:20:19.059Z,99617.00
2023-03-27T07:22:46.771Z,99616.78
2023-03-27T07:25:32.846Z,99611.34
2023-03-27T07:28:00.851Z,99619.41
2023-03-27T07:30:28.550Z,99623.72
2023-03-27T07:32:57.901Z,99624.19
2023-03-27T07:35:26.192Z,99631.50
2023-03-27T07:38:12.452Z,99619.38
2023-03-27T07:41:06.259Z,99622.44
2023-03-27T07:43:52.381Z,99616.22
2023-03-27T07:46:24.165Z,99615.44
2023-03-27T07:48:52.666Z,99626.00
2023-03-27T07:51:24.146Z,99629.03
2023-03-27T07:53:56.502Z,99630.13
2023-03-27T07:56:34.063Z,99623.25
2023-03-27T07:59:40.123Z,99636.09
2023-03-27T08:02:14.242Z,99633.41
2023-03-27T08:04:41.802Z,99648.25
2023-03-27T08:07:11.701Z,99664.53
2023-03-27T08:09:41.685Z,99654.84
2023-03-27T08:12:09.107Z,99664.19
2023-03-27T08:14:41.717Z,99678.03
2023-03-27T08:17:29.141Z,99666.63
2023-03-27T08:19:57.131Z,99656.53
2023-03-27T08:22:25.970Z,99651.69
2023-03-27T08:25:16.730Z,99653.00
2023-03-27T08:27:44.893Z,99652.41
2023-03-27T08:30:16.739Z,99648.75
2023-03-27T08:32:44.994Z,99648.41
2023-03-27T08:35:13.699Z,99649.06
2023-03-27T08:37:41.771Z,99660.19
2023-03-27T08:40:34.058Z,99659.47
2023-03-27T08:43:28.565Z,99669.69
2023-03-27T08:46:02.154Z,99676.59
2023-03-27T08:48:36.312Z,99671.84
2023-03-27T08:51:18.744Z,99676.41
2023-03-27T08:53:57.126Z,99681.53
2023-03-27T08:56:28.622Z,99679.91
2023-03-27T08:58:57.690Z,99684.66
2023-03-27T09:01:56.982Z,99680.78
2023-03-27T09:04:53.093Z,99689.78
2023-03-27T09:07:43.561Z,99690.50
2023-03-27T09:10:30.421Z,99685.41
2023-03-27T09:13:11.233Z,99691.84
2023-03-27T09:15:49.611Z,99693.47
2023-03-27T09:18:38.730Z,99702.66
2023-03-27T09:21:23.252Z,99702.78
2023-03-27T09:23:55.331Z,99695.88
2023-03-27T09:26:41.512Z,99705.78
2023-03-27T09:29:39.445Z,99702.88
2023-03-27T09:32:27.048Z,99724.19
2023-03-27T09:35:01.165Z,99717.34
2023-03-27T09:37:28.712Z,99712.53
2023-03-27T09:40:00.210Z,99716.47
2023-03-27T09:42:39.723Z,99730.81
2023-03-27T09:45:11.155Z,99731.09
2023-03-27T09:48:01.492Z,99723.47
2023-03-27T09:50:44.571Z,99728.28
2023-03-27T09:53:32.121Z,99731.38
2023-03-27T09:56:20.260Z,99728.78
2023-03-27T09:58:51.941Z,99722.78
2023-03-27T10:01:30.850Z,99727.06
2023-03-27T10:04:21.865Z,99745.72
2023-03-27T10:07:00.057Z,99749.44
2023-03-27T10:10:03.765Z,99742.66
2023-03-27T10:12:34.479Z,99735.31
2023-03-27T10:15:04.863Z,99735.28
2023-03-27T10:17:38.528Z,99728.88
2023-03-27T10:20:18.318Z,99722.41
2023-03-27T10:22:54.717Z,99719.97
2023-03-27T10:25:34.384Z,99726.41
2023-03-27T10:28:24.642Z,99735.38
2023-03-27T10:31:26.165Z,99742.75
2023-03-27T10:34:02.095Z,99745.25
2023-03-27T10:36:49.459Z,99743.69
2023-03-27T10:39:21.484Z,99747.16
2023-03-27T10:42:14.983Z,99736.91
2023-03-27T10:44:49.009Z,99744.41
2023-03-27T10:47:23.665Z,99747.34
2023-03-27T10:50:15.527Z,99748.06
2023-03-27T10:53:02.709Z,99746.84
2023-03-27T10:56:01.739Z,99751.75
2023-03-27T10:58:39.226Z,99745.88
2023-03-27T11:01:28.762Z,99740.44
2023-03-27T11:04:44.790Z,99751.31
2023-03-27T11:07:40.563Z,99751.59
2023-03-27T11:10:19.857Z,99748.44
2023-03-27T11:13:01.668Z,99757.13
2023-03-27T11:16:01.684Z,99757.47
2023-03-27T11:18:57.180Z,99758.56
2023-03-27T11:21:47.511Z,99755.41
2023-03-27T11:24:40.879Z,99755.94
2023-03-27T11:27:19.842Z,99761.34
2023-03-27T11:30:20.284Z,99753.28
2023-03-27T11:33:25.655Z,99751.81
2023-03-27T11:36:27.150Z,99749.97
2023-03-27T11:39:27.141Z,99739.00
2023-03-27T11:42:02.403Z,99742.81
2023-03-27T11:44:30.447Z,99755.13
2023-03-27T11:47:47.872Z,99770.41
2023-03-27T11:50:53.287Z,99779.06
2023-03-27T11:53:48.711Z,99762.44
2023-03-27T11:56:22.034Z,99775.97
2023-03-27T11:59:32.140Z,99787.22
2023-03-27T12:02:27.742Z,99779.78
2023-03-27T12:05:31.437Z,99781.97
2023-03-27T12:08:07.700Z,99775.66
2023-03-27T12:10:43.534Z,99769.41
2023-03-27T12:14:03.403Z,99760.81
2023-03-27T12:16:56.174Z,99755.53
2023-03-27T12:19:43.515Z,99762.09
2023-03-27T12:23:16.579Z,99761.56
2023-03-27T12:26:33.464Z,99758.22
2023-03-27T12:29:44.487Z,99764.72
2023-03-27T12:32:46.846Z,99765.56
2023-03-27T12:35:22.302Z,99771.94
2023-03-27T12:37:59.895Z,99776.56
2023-03-27T12:40:37.992Z,99773.81
2023-03-27T12:43:39.475Z,99785.16
2023-03-27T12:46:40.767Z,99783.69
2023-03-27T12:49:08.309Z,99787.91
2023-03-27T12:51:51.939Z,99787.25
2023-03-27T12:54:39.294Z,99785.94
2023-03-27T12:57:27.254Z,99793.41
2023-03-27T13:00:02.559Z,99785.25
2023-03-27T13:02:34.991Z,99782.88
2023-03-27T13:05:27.768Z,99782.16
2023-03-27T13:08:35.068Z,99781.53
2023-03-27T13:12:12.986Z,99782.31
2023-03-27T13:15:08.626Z,99785.44
2023-03-27T13:17:49.862Z,99789.38
2023-03-27T13:20:45.842Z,99784.28
2023-03-27T13:23:42.364Z,99799.53
2023-03-27T13:26:44.707Z,99791.31
2023-03-27T13:29:26.485Z,99786.94
2023-03-27T13:32:06.205Z,99797.59
2023-03-27T13:35:31.675Z,99791.94
2023-03-27T13:38:00.755Z,99785.78
2023-03-27T13:40:38.748Z,99782.63
2023-03-27T13:43:26.148Z,99773.03
2023-03-27T13:46:05.238Z,99774.50
2023-03-27T13:49:37.013Z,99779.19
2023-03-27T13:52:19.871Z,99795.88
2023-03-27T13:55:02.576Z,99800.91
2023-03-27T13:58:13.456Z,99807.38
2023-03-27T14:01:37.875Z,99813.25
2023-03-27T14:04:37.341Z,99815.28
2023-03-27T14:07:22.886Z,99820.72
2023-03-27T14:10:31.542Z,99819.50
2023-03-27T14:13:36.812Z,99819.84
2023-03-27T14:16:38.574Z,99811.16
2023-03-27T14:19:26.941Z,99813.44
2023-03-27T14:22:18.571Z,99830.94
2023-03-27T14:25:02.714Z,99822.44
2023-03-27T14:27:36.680Z,99826.63
2023-03-27T14:30:26.346Z,99842.47
2023-03-27T14:33:20.013Z,99837.31
2023-03-27T14:36:03.972Z,99823.97
2023-03-27T14:38:35.560Z,99822.28
2023-03-27T14:41:06.520Z,99827.63
2023-03-27T14:43:56.982Z,99825.59
2023-03-27T14:46:26.747Z,99833.16
2023-03-27T14:48:59.224Z,99842.34
2023-03-27T14:51:44.884Z,99847.13
2023-03-27T14:54:29.586Z,99851.34
2023-03-27T14:57:09.750Z,99856.00
2023-03-27T14:59:44.196Z,99853.28
2023-03-27T15:02:35.276Z,99861.66
2023-03-27T15:05:16.826Z,99873.78
2023-03-27T15:07:49.144Z,99880.44
2023-03-27T15:10:31.655Z,99875.66
2023-03-27T15:13:11.410Z,99877.25
2023-03-27T15:15:50.293Z,99886.41
2023-03-27T15:18:22.504Z,99894.88
2023-03-27T15:20:50.923Z,99890.50
2023-03-27T15:23:25.203Z,99893.78
2023-03-27T15:25:59.279Z,99912.34
2023-03-27T15:28:34.029Z,99906.88
2023-03-27T15:31:03.469Z,99901.94
2023-03-27T15:34:10.789Z,99908.66
2023-03-27T15:36:40.130Z,99923.69
2023-03-27T15:39:08.470Z,99936.50
2023-03-27T15:41:40.626Z,99949.19
2023-03-27T15:44:17.065Z,99929.59
2023-03-27T15:46:54.085Z,99938.03
2023-03-27T15:49:37.215Z,99950.91
2023-03-27T15:52:33.369Z,99958.03
2023-03-27T15:55:00.902Z,99962.69
2023-03-27T15:57:31.781Z,99959.91
2023-03-27T16:00:09.134Z,99960.53
2023-03-27T16:02:43.521Z,99969.34
2023-03-27T16:05:16.616Z,99968.06
2023-03-27T16:07:47.284Z,99970.25
2023-03-27T16:10:29.735Z,99976.00
2023-03-27T16:13:02.566Z,99968.53
2023-03-27T16:15:47.095Z,99986.56
2023-03-27T16:18:18.982Z,99993.75
2023-03-27T16:20:46.653Z,99994.44
2023-03-27T16:23:14.237Z,100001.69
2023-03-27T16:25:46.098Z,99999.31
2023-03-27T16:28:14.389Z,100014.41
2023-03-27T16:30:42.305Z,100019.78
2023-03-27T16:33:20.286Z,100015.97
2023-03-27T16:35:50.515Z,100018.88
2023-03-27T16:38:20.897Z,100034.94
2023-03-27T16:40:48.380Z,100040.50
2023-03-27T16:43:16.115Z,100047.47
2023-03-27T16:45:44.916Z,100049.47
2023-03-27T16:48:13.566Z,100061.72
2023-03-27T16:50:41.105Z,100057.88
2023-03-27T16:53:08.584Z,100081.34
2023-03-27T16:55:36.345Z,100077.69
2023-03-27T16:58:03.891Z,100085.56
2023-03-27T17:00:31.670Z,100083.81
2023-03-27T17:02:59.202Z,100091.38
2023-03-27T17:05:26.593Z,100098.88
2023-03-27T17:07:53.960Z,100105.72
2023-03-27T17:10:21.464Z,100116.16
2023-03-27T17:12:48.879Z,100123.75
2023-03-27T17:15:16.873Z,100125.84
2023-03-27T17:17:45.181Z,100132.13
2023-03-27T17:20:12.884Z,100143.84
2023-03-27T17:22:40.329Z,100153.78
2023-03-27T17:25:10.210Z,100164.00
2023-03-27T17:27:44.283Z,100159.06
2023-03-27T17:30:27.129Z,100172.34
2023-03-27T17:33:13.604Z,100182.13
2023-03-27T17:35:47.678Z,100196.38
2023-03-27T17:38:19.049Z,100186.00
2023-03-27T17:40:46.721Z,100188.88
2023-03-27T17:43:14.524Z,100204.78
2023-03-27T17:45:47.355Z,100207.47
2023-03-27T17:48:14.825Z,100221.00
2023-03-27T17:50:54.849Z,100230.50
2023-03-27T17:53:29.699Z,100228.38
2023-03-27T17:55:58.065Z,100232.84
2023-03-27T17:58:26.662Z,100245.22
2023-03-27T18:00:55.032Z,100246.75
2023-03-27T18:03:22.981Z,100251.16
2023-03-27T18:05:51.066Z,100254.34
2023-03-27T18:08:19.881Z,100267.41
2023-03-27T18:10:50.679Z,100282.09
2023-03-27T18:13:19.214Z,100276.75
2023-03-27T18:15:55.355Z,100297.41
2023-03-27T18:18:24.212Z,100311.22
2023-03-27T18:21:01.269Z,100308.84
2023-03-27T18:23:29.041Z,100320.00
2023-03-27T18:25:56.650Z,100321.69
2023-03-27T18:28:27.458Z,100330.19
2023-03-27T18:30:59.788Z,100327.38
2023-03-27T18:33:27.475Z,100340.81
2023-03-27T18:35:56.809Z,100342.84
2023-03-27T18:38:28.947Z,100350.84
2023-03-27T18:40:57.509Z,100362.50
2023-03-27T18:43:34.371Z,100364.19
2023-03-27T18:46:05.793Z,100382.88
2023-03-27T18:48:35.461Z,100385.28
2023-03-27T18:51:05.898Z,100394.59
2023-03-27T18:53:33.574Z,100389.47
2023-03-27T18:56:01.904Z,100389.88
2023-03-27T18:58:29.911Z,100398.44
2023-03-27T19:01:00.027Z,100407.22
2023-03-27T19:03:30.554Z,100416.19
2023-03-27T19:06:01.283Z,100416.66
2023-03-27T19:08:29.371Z,100417.47
2023-03-27T19:10:57.933Z,100425.75
2023-03-27T19:13:44.529Z,100438.75
2023-03-27T19:16:22.379Z,100445.66
2023-03-27T19:19:25.068Z,100436.34
2023-03-27T19:22:13.032Z,100451.06
2023-03-27T19:24:48.085Z,100462.97
2023-03-27T19:27:23.506Z,100469.16
2023-03-27T19:29:53.082Z,100471.91
2023-03-27T19:32:25.486Z,100472.84
2023-03-27T19:35:03.129Z,100482.09
2023-03-27T19:37:33.644Z,100502.69
2023-03-27T19:40:01.529Z,100500.53
2023-03-27T19:42:29.573Z,100510.59
2023-03-27T19:44:57.495Z,100507.13
2023-03-27T19:47:25.075Z,100504.00
2023-03-27T19:49:53.685Z,100525.75
2023-03-27T19:52:33.452Z,100524.16
2023-03-27T19:55:01.262Z,100529.53
2023-03-27T19:57:28.814Z,100539.44
2023-03-27T19:59:56.632Z,100549.94
2023-03-27T20:02:24.559Z,100554.13
2023-03-27T20:04:52.410Z,100561.44
2023-03-27T20:07:20.078Z,100572.69
2023-03-27T20:09:48.334Z,100564.63
2023-03-27T20:12:19.788Z,100571.88
2023-03-27T20:14:58.706Z,100584.03
2023-03-27T20:17:35.060Z,100597.53
2023-03-27T20:20:05.770Z,100595.13
2023-03-27T20:22:38.661Z,100609.09
2023-03-27T20:25:11.345Z,100603.88
2023-03-27T20:27:40.211Z,100609.28
2023-03-27T20:30:14.041Z,100620.06
2023-03-27T20:32:42.344Z,100626.22
2023-03-27T20:35:22.855Z,100630.66
2023-03-27T20:37:56.549Z,100636.13
2023-03-27T20:40:26.364Z,100629.38
2023-03-27T20:43:03.127Z,100639.91
2023-03-27T20:45:31.312Z,100631.31
2023-03-27T20:48:05.035Z,100640.13
2023-03-27T20:50:35.350Z,100657.56
2023-03-27T20:53:04.767Z,100662.19
2023-03-27T20:55:36.053Z,100664.81
2023-03-27T20:58:06.887Z,100681.53
2023-03-27T21:00:35.658Z,100701.72
2023-03-27T21:03:05.475Z,100696.53
2023-03-27T21:05:34.747Z,100710.59
2023-03-27T21:08:03.616Z,100715.75
2023-03-27T21:10:31.222Z,100718.44
2023-03-27T21:12:58.912Z,100740.47
2023-03-27T21:15:27.248Z,100752.19
2023-03-27T21:17:55.000Z,100761.09
2023-03-27T21:20:26.337Z,100769.28
2023-03-27T21:22:53.950Z,100779.59
2023-03-27T21:25:22.696Z,100780.44
2023-03-27T21:27:58.146Z,100764.84
2023-03-27T21:30:46.880Z,100775.56
2023-03-27T21:33:15.273Z,100796.66
2023-03-27T21:35:48.987Z,100803.63
2023-03-27T21:38:17.572Z,100793.19
2023-03-27T21:40:48.087Z,100797.59
2023-03-27T21:43:15.978Z,100812.38
2023-03-27T21:45:43.545Z,100810.78
2023-03-27T21:48:11.160Z,100830.88
2023-03-27T21:50:38.691Z,100824.66
2023-03-27T21:53:06.204Z,100837.06
2023-03-27T21:55:34.780Z,100844.91
2023-03-27T21:58:02.228Z,100837.00
2023-03-27T22:00:29.641Z,100853.66
2023-03-27T22:02:57.263Z,100842.28
2023-03-27T22:05:24.792Z,100843.13
2023-03-27T22:07:52.425Z,100843.06
2023-03-27T22:10:20.047Z,100862.28
2023-03-27T22:12:47.495Z,100868.56
2023-03-27T22:15:14.819Z,100869.50
2023-03-27T22:17:42.276Z,100879.09
2023-03-27T22:20:10.147Z,100886.13
2023-03-27T22:22:37.761Z,100881.81
2023-03-27T22:25:05.748Z,100893.28
2023-03-27T22:27:33.411Z,100889.72
2023-03-27T22:30:00.927Z,100885.38
2023-03-27T22:32:28.345Z,100884.53
2023-03-27T22:34:55.806Z,100887.13
2023-03-27T22:37:25.081Z,100899.41
2023-03-27T22:39:52.746Z,100901.16
2023-03-27T22:42:20.245Z,100916.97
2023-03-27T22:44:47.593Z,100904.72
2023-03-27T22:47:15.055Z,100915.22
2023-03-27T22:49:42.430Z,100924.88
2023-03-27T22:52:09.837Z,100924.88
2023-03-27T22:54:37.170Z,100940.63
2023-03-27T22:57:04.682Z,100940.66
2023-03-27T22:59:32.073Z,100950.28
2023-03-27T23:01:59.539Z,100944.13
2023-03-27T23:04:28.582Z,100956.41
2023-03-27T23:06:55.973Z,100982.69
2023-03-27T23:09:23.432Z,100979.19
2023-03-27T23:11:51.033Z,100982.69
2023-03-27T23:14:18.557Z,100991.47
2023-03-27T23:16:46.078Z,101007.22
2023-03-27T23:19:13.583Z,101014.94
2023-03-27T23:21:41.193Z,101002.59
2023-03-27T23:24:08.672Z,101010.47
2023-03-27T23:26:36.244Z,101017.41
2023-03-27T23:29:03.831Z,101035.72
2023-03-27T23:31:31.505Z,101029.63
2023-03-27T23:33:58.911Z,101033.94
2023-03-27T23:36:26.341Z,101026.97
2023-03-27T23:38:53.999Z,101038.41
2023-03-27T23:41:21.794Z,101030.47
2023-03-27T23:43:49.665Z,101048.66
2023-03-27T23:46:17.155Z,101047.63
2023-03-27T23:48:45.175Z,101055.50
2023-03-27T23:51:15.659Z,101066.59
2023-03-27T23:53:43.371Z,101063.91
2023-03-27T23:56:11.479Z,101071.88
2023-03-27T23:58:39.034Z,101084.22
